sensor_id;sensor_type;location;lat;lon;timestamp;P1;durP1;ratioP1;P2;durP2;ratioP2
54384;SDS011;40284;52.878;5.998;2024-01-06T00:02:05;20.60;;;14.73;;
54384;SDS011;40284;52.878;5.998;2024-01-06T00:04:31;18.40;;;14.70;;
54384;SDS011;40284;52.878;5.998;2024-01-06T00:06:57;17.95;;;14.15;;
54384;SDS011;40284;52.878;5.998;2024-01-06T00:09:23;18.90;;;14.13;;
54384;SDS011;40284;52.878;5.998;2024-01-06T00:11:49;20.05;;;15.73;;
54384;SDS011;40284;52.878;5.998;2024-01-06T00:14:15;28.50;;;20.10;;
54384;SDS011;40284;52.878;5.998;2024-01-06T00:16:41;26.20;;;19.27;;
54384;SDS011;40284;52.878;5.998;2024-01-06T00:19:07;26.83;;;20.30;;
54384;SDS011;40284;52.878;5.998;2024-01-06T00:21:34;29.08;;;20.60;;
54384;SDS011;40284;52.878;5.998;2024-01-06T00:24:00;29.23;;;21.50;;
54384;SDS011;40284;52.878;5.998;2024-01-06T00:26:26;29.70;;;22.25;;
54384;SDS011;40284;52.878;5.998;2024-01-06T00:28:52;26.15;;;20.23;;
54384;SDS011;40284;52.878;5.998;2024-01-06T00:31:18;30.23;;;21.83;;
54384;SDS011;40284;52.878;5.998;2024-01-06T00:33:44;28.27;;;20.77;;
54384;SDS011;40284;52.878;5.998;2024-01-06T00:36:10;29.92;;;20.65;;
54384;SDS011;40284;52.878;5.998;2024-01-06T00:38:37;28.50;;;21.38;;
54384;SDS011;40284;52.878;5.998;2024-01-06T00:41:03;29.55;;;20.52;;
54384;SDS011;40284;52.878;5.998;2024-01-06T00:43:29;30.42;;;20.83;;
54384;SDS011;40284;52.878;5.998;2024-01-06T00:45:55;29.00;;;21.05;;
54384;SDS011;40284;52.878;5.998;2024-01-06T00:48:21;29.23;;;19.73;;
54384;SDS011;40284;52.878;5.998;2024-01-06T00:50:47;26.90;;;19.42;;
54384;SDS011;40284;52.878;5.998;2024-01-06T00:53:13;29.48;;;20.52;;
54384;SDS011;40284;52.878;5.998;2024-01-06T00:55:39;26.70;;;18.45;;
54384;SDS011;40284;52.878;5.998;2024-01-06T00:58:05;28.63;;;18.85;;
54384;SDS011;40284;52.878;5.998;2024-01-06T01:00:31;29.58;;;20.48;;
54384;SDS011;40284;52.878;5.998;2024-01-06T01:02:57;26.83;;;18.70;;
54384;SDS011;40284;52.878;5.998;2024-01-06T01:05:23;23.17;;;16.88;;
54384;SDS011;40284;52.878;5.998;2024-01-06T01:07:49;21.95;;;16.17;;
54384;SDS011;40284;52.878;5.998;2024-01-06T01:10:15;21.58;;;15.38;;
54384;SDS011;40284;52.878;5.998;2024-01-06T01:12:41;18.85;;;13.82;;
54384;SDS011;40284;52.878;5.998;2024-01-06T01:15:08;20.60;;;14.90;;
54384;SDS011;40284;52.878;5.998;2024-01-06T01:17:34;20.00;;;14.50;;
54384;SDS011;40284;52.878;5.998;2024-01-06T01:20:00;20.73;;;14.38;;
54384;SDS011;40284;52.878;5.998;2024-01-06T01:22:26;19.60;;;14.25;;
54384;SDS011;40284;52.878;5.998;2024-01-06T01:24:52;19.85;;;13.98;;
54384;SDS011;40284;52.878;5.998;2024-01-06T01:27:18;18.95;;;14.30;;
54384;SDS011;40284;52.878;5.998;2024-01-06T01:29:44;22.27;;;13.73;;
54384;SDS011;40284;52.878;5.998;2024-01-06T01:32:10;24.25;;;15.85;;
54384;SDS011;40284;52.878;5.998;2024-01-06T01:34:36;21.27;;;14.68;;
54384;SDS011;40284;52.878;5.998;2024-01-06T01:37:02;22.98;;;15.82;;
54384;SDS011;40284;52.878;5.998;2024-01-06T01:39:28;23.40;;;16.10;;
54384;SDS011;40284;52.878;5.998;2024-01-06T01:41:54;21.88;;;15.52;;
54384;SDS011;40284;52.878;5.998;2024-01-06T01:44:21;22.63;;;17.30;;
54384;SDS011;40284;52.878;5.998;2024-01-06T01:46:47;27.08;;;16.80;;
54384;SDS011;40284;52.878;5.998;2024-01-06T01:49:13;22.27;;;16.45;;
54384;SDS011;40284;52.878;5.998;2024-01-06T01:51:39;22.15;;;16.75;;
54384;SDS011;40284;52.878;5.998;2024-01-06T01:54:08;23.95;;;16.85;;
54384;SDS011;40284;52.878;5.998;2024-01-06T01:56:34;24.85;;;17.40;;
54384;SDS011;40284;52.878;5.998;2024-01-06T01:59:11;23.13;;;17.67;;
54384;SDS011;40284;52.878;5.998;2024-01-06T02:01:37;26.70;;;17.05;;
54384;SDS011;40284;52.878;5.998;2024-01-06T02:04:04;22.40;;;14.95;;
54384;SDS011;40284;52.878;5.998;2024-01-06T02:06:30;24.42;;;15.52;;
54384;SDS011;40284;52.878;5.998;2024-01-06T02:08:56;22.30;;;15.25;;
54384;SDS011;40284;52.878;5.998;2024-01-06T02:11:22;17.92;;;13.55;;
54384;SDS011;40284;52.878;5.998;2024-01-06T02:13:49;21.13;;;14.25;;
54384;SDS011;40284;52.878;5.998;2024-01-06T02:16:15;22.02;;;15.70;;
54384;SDS011;40284;52.878;5.998;2024-01-06T02:18:41;24.30;;;14.68;;
54384;SDS011;40284;52.878;5.998;2024-01-06T02:21:07;25.67;;;14.85;;
54384;SDS011;40284;52.878;5.998;2024-01-06T02:23:34;24.95;;;14.98;;
54384;SDS011;40284;52.878;5.998;2024-01-06T02:26:01;23.33;;;14.43;;
54384;SDS011;40284;52.878;5.998;2024-01-06T02:28:27;20.80;;;15.20;;
54384;SDS011;40284;52.878;5.998;2024-01-06T02:30:53;23.52;;;16.23;;
54384;SDS011;40284;52.878;5.998;2024-01-06T02:33:19;21.45;;;14.27;;
54384;SDS011;40284;52.878;5.998;2024-01-06T02:35:45;19.48;;;14.07;;
54384;SDS011;40284;52.878;5.998;2024-01-06T02:38:11;19.92;;;14.75;;
54384;SDS011;40284;52.878;5.998;2024-01-06T02:40:37;20.23;;;14.02;;
54384;SDS011;40284;52.878;5.998;2024-01-06T02:43:04;18.40;;;13.50;;
54384;SDS011;40284;52.878;5.998;2024-01-06T02:45:30;21.75;;;14.63;;
54384;SDS011;40284;52.878;5.998;2024-01-06T02:47:56;18.88;;;13.65;;
54384;SDS011;40284;52.878;5.998;2024-01-06T02:50:22;18.55;;;13.30;;
54384;SDS011;40284;52.878;5.998;2024-01-06T02:52:48;17.50;;;13.05;;
54384;SDS011;40284;52.878;5.998;2024-01-06T02:55:14;16.55;;;12.07;;
54384;SDS011;40284;52.878;5.998;2024-01-06T02:57:40;19.55;;;12.30;;
54384;SDS011;40284;52.878;5.998;2024-01-06T03:00:07;16.88;;;11.07;;
54384;SDS011;40284;52.878;5.998;2024-01-06T03:02:33;18.13;;;12.10;;
54384;SDS011;40284;52.878;5.998;2024-01-06T03:05:01;17.77;;;11.80;;
54384;SDS011;40284;52.878;5.998;2024-01-06T03:07:27;18.00;;;12.48;;
54384;SDS011;40284;52.878;5.998;2024-01-06T03:09:53;20.42;;;12.57;;
54384;SDS011;40284;52.878;5.998;2024-01-06T03:12:19;20.45;;;12.70;;
54384;SDS011;40284;52.878;5.998;2024-01-06T03:14:45;17.85;;;12.38;;
54384;SDS011;40284;52.878;5.998;2024-01-06T03:17:11;17.55;;;11.95;;
54384;SDS011;40284;52.878;5.998;2024-01-06T03:19:38;15.88;;;11.63;;
54384;SDS011;40284;52.878;5.998;2024-01-06T03:22:04;18.95;;;11.90;;
54384;SDS011;40284;52.878;5.998;2024-01-06T03:24:30;18.90;;;12.10;;
54384;SDS011;40284;52.878;5.998;2024-01-06T03:26:56;16.90;;;11.52;;
54384;SDS011;40284;52.878;5.998;2024-01-06T03:29:22;19.00;;;12.50;;
54384;SDS011;40284;52.878;5.998;2024-01-06T03:31:48;17.70;;;12.82;;
54384;SDS011;40284;52.878;5.998;2024-01-06T03:34:14;19.40;;;12.38;;
54384;SDS011;40284;52.878;5.998;2024-01-06T03:36:40;16.58;;;11.27;;
54384;SDS011;40284;52.878;5.998;2024-01-06T03:39:07;17.75;;;12.02;;
54384;SDS011;40284;52.878;5.998;2024-01-06T03:41:33;18.65;;;11.55;;
54384;SDS011;40284;52.878;5.998;2024-01-06T03:43:59;20.65;;;12.25;;
54384;SDS011;40284;52.878;5.998;2024-01-06T03:46:25;17.02;;;11.82;;
54384;SDS011;40284;52.878;5.998;2024-01-06T03:48:51;19.05;;;10.93;;
54384;SDS011;40284;52.878;5.998;2024-01-06T03:51:17;17.05;;;11.43;;
54384;SDS011;40284;52.878;5.998;2024-01-06T03:53:43;20.20;;;11.75;;
54384;SDS011;40284;52.878;5.998;2024-01-06T03:56:09;17.52;;;11.63;;
54384;SDS011;40284;52.878;5.998;2024-01-06T03:58:36;17.08;;;11.73;;
54384;SDS011;40284;52.878;5.998;2024-01-06T04:01:02;16.73;;;12.10;;
54384;SDS011;40284;52.878;5.998;2024-01-06T04:03:28;18.13;;;11.55;;
54384;SDS011;40284;52.878;5.998;2024-01-06T04:05:54;17.77;;;11.60;;
54384;SDS011;40284;52.878;5.998;2024-01-06T04:08:20;16.65;;;12.18;;
54384;SDS011;40284;52.878;5.998;2024-01-06T04:10:46;20.00;;;12.70;;
54384;SDS011;40284;52.878;5.998;2024-01-06T04:13:12;16.23;;;11.60;;
54384;SDS011;40284;52.878;5.998;2024-01-06T04:15:38;16.45;;;11.90;;
54384;SDS011;40284;52.878;5.998;2024-01-06T04:18:05;18.95;;;12.60;;
54384;SDS011;40284;52.878;5.998;2024-01-06T04:20:31;19.70;;;13.65;;
54384;SDS011;40284;52.878;5.998;2024-01-06T04:22:58;16.65;;;11.73;;
54384;SDS011;40284;52.878;5.998;2024-01-06T04:25:24;20.45;;;12.98;;
54384;SDS011;40284;52.878;5.998;2024-01-06T04:27:50;17.52;;;11.95;;
54384;SDS011;40284;52.878;5.998;2024-01-06T04:30:16;21.02;;;13.57;;
54384;SDS011;40284;52.878;5.998;2024-01-06T04:32:43;17.23;;;12.07;;
54384;SDS011;40284;52.878;5.998;2024-01-06T04:35:09;21.77;;;14.45;;
54384;SDS011;40284;52.878;5.998;2024-01-06T04:37:36;21.38;;;13.48;;
54384;SDS011;40284;52.878;5.998;2024-01-06T04:40:02;21.75;;;14.05;;
54384;SDS011;40284;52.878;5.998;2024-01-06T04:42:29;21.17;;;14.85;;
54384;SDS011;40284;52.878;5.998;2024-01-06T04:44:55;21.85;;;14.93;;
54384;SDS011;40284;52.878;5.998;2024-01-06T04:47:21;21.15;;;14.90;;
54384;SDS011;40284;52.878;5.998;2024-01-06T04:49:47;21.63;;;15.07;;
54384;SDS011;40284;52.878;5.998;2024-01-06T04:52:13;20.55;;;13.35;;
54384;SDS011;40284;52.878;5.998;2024-01-06T04:54:39;18.88;;;13.40;;
54384;SDS011;40284;52.878;5.998;2024-01-06T04:57:05;21.42;;;14.70;;
54384;SDS011;40284;52.878;5.998;2024-01-06T04:59:31;21.45;;;13.80;;
54384;SDS011;40284;52.878;5.998;2024-01-06T05:01:57;21.00;;;13.55;;
54384;SDS011;40284;52.878;5.998;2024-01-06T05:04:23;24.17;;;13.63;;
54384;SDS011;40284;52.878;5.998;2024-01-06T05:06:51;20.42;;;13.00;;
54384;SDS011;40284;52.878;5.998;2024-01-06T05:09:17;22.08;;;14.00;;
54384;SDS011;40284;52.878;5.998;2024-01-06T05:11:43;22.02;;;14.07;;
54384;SDS011;40284;52.878;5.998;2024-01-06T05:14:10;21.77;;;12.30;;
54384;SDS011;40284;52.878;5.998;2024-01-06T05:16:36;19.70;;;12.90;;
54384;SDS011;40284;52.878;5.998;2024-01-06T05:19:02;20.63;;;13.40;;
54384;SDS011;40284;52.878;5.998;2024-01-06T05:21:29;21.45;;;13.02;;
54384;SDS011;40284;52.878;5.998;2024-01-06T05:23:55;19.92;;;13.77;;
54384;SDS011;40284;52.878;5.998;2024-01-06T05:26:21;20.60;;;13.40;;
54384;SDS011;40284;52.878;5.998;2024-01-06T05:28:47;22.38;;;13.43;;
54384;SDS011;40284;52.878;5.998;2024-01-06T05:31:13;18.45;;;12.38;;
54384;SDS011;40284;52.878;5.998;2024-01-06T05:33:39;21.63;;;12.95;;
54384;SDS011;40284;52.878;5.998;2024-01-06T05:36:05;21.65;;;13.38;;
54384;SDS011;40284;52.878;5.998;2024-01-06T05:38:31;16.58;;;11.10;;
54384;SDS011;40284;52.878;5.998;2024-01-06T05:40:57;18.88;;;12.85;;
54384;SDS011;40284;52.878;5.998;2024-01-06T05:43:23;18.45;;;12.30;;
54384;SDS011;40284;52.878;5.998;2024-01-06T05:45:50;19.25;;;12.55;;
54384;SDS011;40284;52.878;5.998;2024-01-06T05:48:16;18.38;;;13.07;;
54384;SDS011;40284;52.878;5.998;2024-01-06T05:50:42;17.08;;;12.02;;
54384;SDS011;40284;52.878;5.998;2024-01-06T05:53:08;19.60;;;12.20;;
54384;SDS011;40284;52.878;5.998;2024-01-06T05:55:35;17.55;;;11.75;;
54384;SDS011;40284;52.878;5.998;2024-01-06T05:58:01;16.13;;;10.38;;
54384;SDS011;40284;52.878;5.998;2024-01-06T06:00:27;18.88;;;10.90;;
54384;SDS011;40284;52.878;5.998;2024-01-06T06:02:56;17.73;;;11.77;;
54384;SDS011;40284;52.878;5.998;2024-01-06T06:05:22;14.63;;;10.43;;
54384;SDS011;40284;52.878;5.998;2024-01-06T06:07:48;14.82;;;11.55;;
54384;SDS011;40284;52.878;5.998;2024-01-06T06:10:15;14.18;;;10.90;;
54384;SDS011;40284;52.878;5.998;2024-01-06T06:12:43;15.50;;;10.57;;
54384;SDS011;40284;52.878;5.998;2024-01-06T06:15:09;20.35;;;11.93;;
54384;SDS011;40284;52.878;5.998;2024-01-06T06:17:35;15.20;;;11.00;;
54384;SDS011;40284;52.878;5.998;2024-01-06T06:20:02;15.48;;;11.15;;
54384;SDS011;40284;52.878;5.998;2024-01-06T06:22:28;15.60;;;10.52;;
54384;SDS011;40284;52.878;5.998;2024-01-06T06:24:59;16.30;;;12.07;;
54384;SDS011;40284;52.878;5.998;2024-01-06T06:27:26;16.25;;;10.20;;
54384;SDS011;40284;52.878;5.998;2024-01-06T06:29:52;18.35;;;11.40;;
54384;SDS011;40284;52.878;5.998;2024-01-06T06:32:18;14.55;;;10.55;;
54384;SDS011;40284;52.878;5.998;2024-01-06T06:34:44;13.30;;;9.95;;
54384;SDS011;40284;52.878;5.998;2024-01-06T06:37:10;15.95;;;11.20;;
54384;SDS011;40284;52.878;5.998;2024-01-06T06:39:37;16.27;;;11.43;;
54384;SDS011;40284;52.878;5.998;2024-01-06T06:42:03;15.70;;;11.15;;
54384;SDS011;40284;52.878;5.998;2024-01-06T06:44:29;18.75;;;11.65;;
54384;SDS011;40284;52.878;5.998;2024-01-06T06:46:56;15.88;;;12.30;;
54384;SDS011;40284;52.878;5.998;2024-01-06T06:49:22;15.18;;;11.00;;
54384;SDS011;40284;52.878;5.998;2024-01-06T06:51:48;16.23;;;11.73;;
54384;SDS011;40284;52.878;5.998;2024-01-06T06:54:15;18.08;;;12.68;;
54384;SDS011;40284;52.878;5.998;2024-01-06T06:56:41;17.73;;;13.02;;
54384;SDS011;40284;52.878;5.998;2024-01-06T06:59:08;17.52;;;11.82;;
54384;SDS011;40284;52.878;5.998;2024-01-06T07:01:34;18.98;;;13.20;;
54384;SDS011;40284;52.878;5.998;2024-01-06T07:04:01;19.75;;;12.85;;
54384;SDS011;40284;52.878;5.998;2024-01-06T07:06:27;15.65;;;12.00;;
54384;SDS011;40284;52.878;5.998;2024-01-06T07:08:54;14.90;;;10.88;;
54384;SDS011;40284;52.878;5.998;2024-01-06T07:11:20;18.70;;;11.98;;
54384;SDS011;40284;52.878;5.998;2024-01-06T07:13:46;18.45;;;13.07;;
54384;SDS011;40284;52.878;5.998;2024-01-06T07:16:12;16.83;;;12.30;;
54384;SDS011;40284;52.878;5.998;2024-01-06T07:18:38;17.55;;;12.93;;
54384;SDS011;40284;52.878;5.998;2024-01-06T07:21:05;16.98;;;12.38;;
54384;SDS011;40284;52.878;5.998;2024-01-06T07:23:34;18.83;;;12.23;;
54384;SDS011;40284;52.878;5.998;2024-01-06T07:26:00;17.52;;;12.55;;
54384;SDS011;40284;52.878;5.998;2024-01-06T07:28:26;16.90;;;12.23;;
54384;SDS011;40284;52.878;5.998;2024-01-06T07:30:52;17.48;;;12.32;;
54384;SDS011;40284;52.878;5.998;2024-01-06T07:33:19;17.83;;;13.13;;
54384;SDS011;40284;52.878;5.998;2024-01-06T07:35:46;19.35;;;13.18;;
54384;SDS011;40284;52.878;5.998;2024-01-06T07:38:12;21.75;;;13.70;;
54384;SDS011;40284;52.878;5.998;2024-01-06T07:40:38;22.00;;;13.13;;
54384;SDS011;40284;52.878;5.998;2024-01-06T07:43:05;17.85;;;12.55;;
54384;SDS011;40284;52.878;5.998;2024-01-06T07:45:31;22.73;;;13.90;;
54384;SDS011;40284;52.878;5.998;2024-01-06T07:48:00;20.90;;;13.52;;
54384;SDS011;40284;52.878;5.998;2024-01-06T07:50:27;17.58;;;12.75;;
54384;SDS011;40284;52.878;5.998;2024-01-06T07:52:54;15.80;;;12.60;;
54384;SDS011;40284;52.878;5.998;2024-01-06T07:55:20;20.15;;;12.55;;
54384;SDS011;40284;52.878;5.998;2024-01-06T07:57:46;19.60;;;12.63;;
54384;SDS011;40284;52.878;5.998;2024-01-06T08:00:12;23.35;;;12.95;;
54384;SDS011;40284;52.878;5.998;2024-01-06T08:02:41;19.90;;;13.10;;
54384;SDS011;40284;52.878;5.998;2024-01-06T08:05:07;17.70;;;13.40;;
54384;SDS011;40284;52.878;5.998;2024-01-06T08:07:34;21.13;;;12.45;;
54384;SDS011;40284;52.878;5.998;2024-01-06T08:10:00;19.80;;;12.27;;
54384;SDS011;40284;52.878;5.998;2024-01-06T08:12:30;20.35;;;11.95;;
54384;SDS011;40284;52.878;5.998;2024-01-06T08:14:56;16.13;;;12.20;;
54384;SDS011;40284;52.878;5.998;2024-01-06T08:17:22;20.88;;;12.70;;
54384;SDS011;40284;52.878;5.998;2024-01-06T08:19:48;21.38;;;12.13;;
54384;SDS011;40284;52.878;5.998;2024-01-06T08:22:14;18.05;;;12.70;;
54384;SDS011;40284;52.878;5.998;2024-01-06T08:24:40;17.88;;;12.15;;
54384;SDS011;40284;52.878;5.998;2024-01-06T08:27:06;20.70;;;12.38;;
54384;SDS011;40284;52.878;5.998;2024-01-06T08:29:32;24.30;;;12.98;;
54384;SDS011;40284;52.878;5.998;2024-01-06T08:31:59;19.15;;;13.05;;
54384;SDS011;40284;52.878;5.998;2024-01-06T08:34:25;17.77;;;12.23;;
54384;SDS011;40284;52.878;5.998;2024-01-06T08:36:52;19.08;;;11.93;;
54384;SDS011;40284;52.878;5.998;2024-01-06T08:39:18;19.23;;;12.55;;
54384;SDS011;40284;52.878;5.998;2024-01-06T08:41:44;21.92;;;11.82;;
54384;SDS011;40284;52.878;5.998;2024-01-06T08:44:11;19.92;;;12.73;;
54384;SDS011;40284;52.878;5.998;2024-01-06T08:46:37;18.20;;;12.35;;
54384;SDS011;40284;52.878;5.998;2024-01-06T08:49:03;19.17;;;12.93;;
54384;SDS011;40284;52.878;5.998;2024-01-06T08:51:29;22.80;;;11.82;;
54384;SDS011;40284;52.878;5.998;2024-01-06T08:53:56;19.42;;;11.95;;
54384;SDS011;40284;52.878;5.998;2024-01-06T08:56:22;15.73;;;11.80;;
54384;SDS011;40284;52.878;5.998;2024-01-06T08:58:48;18.90;;;13.07;;
54384;SDS011;40284;52.878;5.998;2024-01-06T09:01:15;17.20;;;12.52;;
54384;SDS011;40284;52.878;5.998;2024-01-06T09:03:41;16.00;;;12.27;;
54384;SDS011;40284;52.878;5.998;2024-01-06T09:06:07;18.67;;;13.05;;
54384;SDS011;40284;52.878;5.998;2024-01-06T09:08:33;22.50;;;14.27;;
54384;SDS011;40284;52.878;5.998;2024-01-06T09:10:59;17.38;;;12.68;;
54384;SDS011;40284;52.878;5.998;2024-01-06T09:13:25;17.85;;;12.68;;
54384;SDS011;40284;52.878;5.998;2024-01-06T09:15:51;18.67;;;12.80;;
54384;SDS011;40284;52.878;5.998;2024-01-06T09:18:17;28.98;;;15.48;;
54384;SDS011;40284;52.878;5.998;2024-01-06T09:20:44;19.73;;;13.13;;
54384;SDS011;40284;52.878;5.998;2024-01-06T09:23:12;17.30;;;12.70;;
54384;SDS011;40284;52.878;5.998;2024-01-06T09:25:38;21.50;;;13.93;;
54384;SDS011;40284;52.878;5.998;2024-01-06T09:28:07;20.77;;;14.45;;
54384;SDS011;40284;52.878;5.998;2024-01-06T09:30:33;18.33;;;12.77;;
54384;SDS011;40284;52.878;5.998;2024-01-06T09:32:59;19.73;;;13.55;;
54384;SDS011;40284;52.878;5.998;2024-01-06T09:35:26;18.75;;;13.95;;
54384;SDS011;40284;52.878;5.998;2024-01-06T09:37:52;24.45;;;14.20;;
54384;SDS011;40284;52.878;5.998;2024-01-06T09:40:21;17.50;;;13.38;;
54384;SDS011;40284;52.878;5.998;2024-01-06T09:42:48;20.08;;;15.10;;
54384;SDS011;40284;52.878;5.998;2024-01-06T09:45:15;22.48;;;14.07;;
54384;SDS011;40284;52.878;5.998;2024-01-06T09:47:41;18.98;;;14.40;;
54384;SDS011;40284;52.878;5.998;2024-01-06T09:50:10;18.73;;;14.43;;
54384;SDS011;40284;52.878;5.998;2024-01-06T09:52:41;22.20;;;14.95;;
54384;SDS011;40284;52.878;5.998;2024-01-06T09:55:10;22.63;;;13.82;;
54384;SDS011;40284;52.878;5.998;2024-01-06T09:57:36;19.77;;;14.40;;
54384;SDS011;40284;52.878;5.998;2024-01-06T10:00:02;21.45;;;14.10;;
54384;SDS011;40284;52.878;5.998;2024-01-06T10:02:29;21.50;;;15.25;;
54384;SDS011;40284;52.878;5.998;2024-01-06T10:04:58;21.92;;;14.60;;
54384;SDS011;40284;52.878;5.998;2024-01-06T10:07:26;21.90;;;15.88;;
54384;SDS011;40284;52.878;5.998;2024-01-06T10:09:54;25.85;;;16.63;;
54384;SDS011;40284;52.878;5.998;2024-01-06T10:12:24;23.60;;;15.85;;
54384;SDS011;40284;52.878;5.998;2024-01-06T10:14:50;24.98;;;16.80;;
54384;SDS011;40284;52.878;5.998;2024-01-06T10:17:16;22.48;;;15.98;;
54384;SDS011;40284;52.878;5.998;2024-01-06T10:19:44;22.35;;;15.57;;
54384;SDS011;40284;52.878;5.998;2024-01-06T10:22:10;19.48;;;14.35;;
54384;SDS011;40284;52.878;5.998;2024-01-06T10:24:37;21.42;;;15.60;;
54384;SDS011;40284;52.878;5.998;2024-01-06T10:27:03;22.13;;;15.02;;
54384;SDS011;40284;52.878;5.998;2024-01-06T10:29:29;18.80;;;14.48;;
54384;SDS011;40284;52.878;5.998;2024-01-06T10:31:55;22.67;;;14.63;;
54384;SDS011;40284;52.878;5.998;2024-01-06T10:34:22;20.35;;;15.73;;
54384;SDS011;40284;52.878;5.998;2024-01-06T10:36:49;20.33;;;14.30;;
54384;SDS011;40284;52.878;5.998;2024-01-06T10:39:17;21.00;;;15.13;;
54384;SDS011;40284;52.878;5.998;2024-01-06T10:41:43;22.23;;;15.93;;
54384;SDS011;40284;52.878;5.998;2024-01-06T10:44:10;23.35;;;14.75;;
54384;SDS011;40284;52.878;5.998;2024-01-06T10:46:37;22.02;;;14.63;;
54384;SDS011;40284;52.878;5.998;2024-01-06T10:49:05;18.42;;;13.57;;
54384;SDS011;40284;52.878;5.998;2024-01-06T10:51:38;19.10;;;13.95;;
54384;SDS011;40284;52.878;5.998;2024-01-06T10:54:05;16.33;;;12.32;;
54384;SDS011;40284;52.878;5.998;2024-01-06T10:56:37;18.90;;;13.15;;
54384;SDS011;40284;52.878;5.998;2024-01-06T10:59:06;17.60;;;13.95;;
54384;SDS011;40284;52.878;5.998;2024-01-06T11:01:33;18.15;;;13.63;;
54384;SDS011;40284;52.878;5.998;2024-01-06T11:03:59;21.02;;;13.93;;
54384;SDS011;40284;52.878;5.998;2024-01-06T11:06:26;18.33;;;13.25;;
54384;SDS011;40284;52.878;5.998;2024-01-06T11:09:27;19.75;;;13.30;;
54384;SDS011;40284;52.878;5.998;2024-01-06T11:11:44;18.10;;;14.38;;
54384;SDS011;40284;52.878;5.998;2024-01-06T11:14:23;21.60;;;13.77;;
54384;SDS011;40284;52.878;5.998;2024-01-06T11:16:50;22.63;;;14.57;;
54384;SDS011;40284;52.878;5.998;2024-01-06T11:22:27;20.75;;;14.63;;
54384;SDS011;40284;52.878;5.998;2024-01-06T11:24:57;18.50;;;13.85;;
54384;SDS011;40284;52.878;5.998;2024-01-06T11:27:29;22.33;;;15.07;;
54384;SDS011;40284;52.878;5.998;2024-01-06T11:30:00;20.08;;;13.63;;
54384;SDS011;40284;52.878;5.998;2024-01-06T11:32:36;19.77;;;13.02;;
54384;SDS011;40284;52.878;5.998;2024-01-06T11:35:10;18.65;;;13.20;;
54384;SDS011;40284;52.878;5.998;2024-01-06T11:40:47;17.60;;;13.50;;
54384;SDS011;40284;52.878;5.998;2024-01-06T11:45:26;18.00;;;13.35;;
54384;SDS011;40284;52.878;5.998;2024-01-06T11:47:54;16.98;;;12.30;;
54384;SDS011;40284;52.878;5.998;2024-01-06T11:50:22;17.83;;;12.00;;
54384;SDS011;40284;52.878;5.998;2024-01-06T11:52:49;17.58;;;12.52;;
54384;SDS011;40284;52.878;5.998;2024-01-06T11:55:17;16.52;;;12.27;;
54384;SDS011;40284;52.878;5.998;2024-01-06T11:57:44;17.02;;;12.75;;
54384;SDS011;40284;52.878;5.998;2024-01-06T12:00:10;17.23;;;11.73;;
54384;SDS011;40284;52.878;5.998;2024-01-06T12:02:37;17.75;;;12.38;;
54384;SDS011;40284;52.878;5.998;2024-01-06T12:05:03;15.48;;;11.98;;
54384;SDS011;40284;52.878;5.998;2024-01-06T12:07:29;17.67;;;12.57;;
54384;SDS011;40284;52.878;5.998;2024-01-06T12:10:02;13.05;;;10.90;;
54384;SDS011;40284;52.878;5.998;2024-01-06T12:12:28;15.27;;;11.18;;
54384;SDS011;40284;52.878;5.998;2024-01-06T12:14:55;15.40;;;10.23;;
54384;SDS011;40284;52.878;5.998;2024-01-06T12:17:21;13.57;;;10.15;;
54384;SDS011;40284;52.878;5.998;2024-01-06T12:19:47;16.77;;;10.57;;
54384;SDS011;40284;52.878;5.998;2024-01-06T12:22:14;14.40;;;10.65;;
54384;SDS011;40284;52.878;5.998;2024-01-06T12:24:41;13.70;;;10.63;;
54384;SDS011;40284;52.878;5.998;2024-01-06T12:27:08;14.65;;;10.55;;
54384;SDS011;40284;52.878;5.998;2024-01-06T12:29:41;15.20;;;9.85;;
54384;SDS011;40284;52.878;5.998;2024-01-06T12:32:07;13.88;;;11.02;;
54384;SDS011;40284;52.878;5.998;2024-01-06T12:34:34;14.48;;;10.70;;
54384;SDS011;40284;52.878;5.998;2024-01-06T12:37:00;12.88;;;9.63;;
54384;SDS011;40284;52.878;5.998;2024-01-06T12:39:27;16.83;;;10.25;;
54384;SDS011;40284;52.878;5.998;2024-01-06T12:41:54;15.73;;;10.82;;
54384;SDS011;40284;52.878;5.998;2024-01-06T12:44:20;14.57;;;10.50;;
54384;SDS011;40284;52.878;5.998;2024-01-06T12:46:47;14.82;;;11.75;;
54384;SDS011;40284;52.878;5.998;2024-01-06T12:49:13;13.55;;;10.10;;
54384;SDS011;40284;52.878;5.998;2024-01-06T12:51:39;12.05;;;10.15;;
54384;SDS011;40284;52.878;5.998;2024-01-06T12:54:05;12.57;;;10.15;;
54384;SDS011;40284;52.878;5.998;2024-01-06T12:56:31;14.35;;;11.45;;
54384;SDS011;40284;52.878;5.998;2024-01-06T12:58:57;12.48;;;10.27;;
54384;SDS011;40284;52.878;5.998;2024-01-06T13:01:24;13.88;;;10.38;;
54384;SDS011;40284;52.878;5.998;2024-01-06T13:03:50;13.00;;;10.23;;
54384;SDS011;40284;52.878;5.998;2024-01-06T13:06:19;12.90;;;9.20;;
54384;SDS011;40284;52.878;5.998;2024-01-06T13:08:45;12.65;;;10.40;;
54384;SDS011;40284;52.878;5.998;2024-01-06T13:11:11;13.27;;;9.68;;
54384;SDS011;40284;52.878;5.998;2024-01-06T13:13:37;15.10;;;10.43;;
54384;SDS011;40284;52.878;5.998;2024-01-06T13:16:03;13.20;;;10.15;;
54384;SDS011;40284;52.878;5.998;2024-01-06T13:18:30;12.13;;;9.52;;
54384;SDS011;40284;52.878;5.998;2024-01-06T13:20:56;13.95;;;10.13;;
54384;SDS011;40284;52.878;5.998;2024-01-06T13:23:22;12.73;;;10.10;;
54384;SDS011;40284;52.878;5.998;2024-01-06T13:25:49;14.05;;;10.05;;
54384;SDS011;40284;52.878;5.998;2024-01-06T13:28:15;12.73;;;10.43;;
54384;SDS011;40284;52.878;5.998;2024-01-06T13:30:41;12.48;;;8.77;;
54384;SDS011;40284;52.878;5.998;2024-01-06T13:33:07;14.27;;;8.77;;
54384;SDS011;40284;52.878;5.998;2024-01-06T13:35:36;11.43;;;9.18;;
54384;SDS011;40284;52.878;5.998;2024-01-06T13:38:03;10.85;;;8.15;;
54384;SDS011;40284;52.878;5.998;2024-01-06T13:40:34;11.20;;;8.05;;
54384;SDS011;40284;52.878;5.998;2024-01-06T13:43:00;11.18;;;8.80;;
54384;SDS011;40284;52.878;5.998;2024-01-06T13:45:29;10.98;;;8.13;;
54384;SDS011;40284;52.878;5.998;2024-01-06T13:47:55;9.55;;;7.80;;
54384;SDS011;40284;52.878;5.998;2024-01-06T13:50:22;9.45;;;7.20;;
54384;SDS011;40284;52.878;5.998;2024-01-06T13:52:48;10.45;;;8.15;;
54384;SDS011;40284;52.878;5.998;2024-01-06T13:55:15;13.02;;;8.55;;
54384;SDS011;40284;52.878;5.998;2024-01-06T13:57:41;10.07;;;8.07;;
54384;SDS011;40284;52.878;5.998;2024-01-06T14:00:08;10.50;;;8.43;;
54384;SDS011;40284;52.878;5.998;2024-01-06T14:02:35;10.65;;;8.48;;
54384;SDS011;40284;52.878;5.998;2024-01-06T14:05:03;9.25;;;8.02;;
54384;SDS011;40284;52.878;5.998;2024-01-06T14:07:29;10.75;;;7.68;;
54384;SDS011;40284;52.878;5.998;2024-01-06T14:09:55;10.45;;;7.93;;
54384;SDS011;40284;52.878;5.998;2024-01-06T14:12:21;10.00;;;8.15;;
54384;SDS011;40284;52.878;5.998;2024-01-06T14:14:47;12.07;;;8.25;;
54384;SDS011;40284;52.878;5.998;2024-01-06T14:17:13;10.02;;;8.02;;
54384;SDS011;40284;52.878;5.998;2024-01-06T14:19:39;12.75;;;9.07;;
54384;SDS011;40284;52.878;5.998;2024-01-06T14:22:05;12.13;;;8.02;;
54384;SDS011;40284;52.878;5.998;2024-01-06T14:24:31;12.10;;;8.80;;
54384;SDS011;40284;52.878;5.998;2024-01-06T14:26:58;11.23;;;9.85;;
54384;SDS011;40284;52.878;5.998;2024-01-06T14:29:24;12.20;;;8.95;;